Time;durP1;ratioP1;P1;durP2;ratioP2;P2;SDS_P1;SDS_P2;PMS_P1;PMS_P2;Temp;Humidity;BMP_temperature;BMP_pressure;BME280_temperature;BME280_humidity;BME280_pressure;Samples;Min_cycle;Max_cycle;Signal;HPM_P1;HPM_P2
2022/01/12 00:02:21;;;;;;;;;;;3.70;99.90;;;;;;5080836;28;20328;-79
2022/01/12 00:04:46;;;;;;;;;;;3.50;99.90;;;;;;5081065;28;20443;-79
2022/01/12 00:07:12;;;;;;;;;;;3.50;99.90;;;;;;5081093;28;19974;-79
2022/01/12 00:09:38;;;;;;;;;;;3.50;99.90;;;;;;5064606;28;20312;-80
2022/01/12 00:12:04;;;;;;;;;;;3.50;99.90;;;;;;5081332;28;19964;-79
2022/01/12 00:14:29;;;;;;;;;;;3.50;99.90;;;;;;5081497;28;19985;-80
2022/01/12 00:16:59;;;;;;;;;;;3.60;99.90;;;;;;5064458;28;19928;-79
2022/01/12 00:19:26;;;;;;;;;;;3.60;99.90;;;;;;5099471;28;20378;-79
2022/01/12 00:21:52;;;;;;;;;;;3.60;99.90;;;;;;5098966;28;19992;-79
2022/01/12 00:24:18;;;;;;;;;;;3.60;99.90;;;;;;5080442;28;20011;-79
2022/01/12 00:33:08;;;;;;;;;;;4.20;99.90;;;;;;5080742;28;19998;-79
2022/01/12 00:34:58;;;;;;;;;;;3.60;99.90;;;;;;5098782;28;20374;-79
2022/01/12 00:37:23;;;;;;;;;;;3.60;99.90;;;;;;5064389;28;19920;-79
2022/01/12 00:39:49;;;;;;;;;;;3.60;99.90;;;;;;5080731;28;19924;-79
2022/01/12 00:42:14;;;;;;;;;;;3.70;99.90;;;;;;5080394;28;19986;-79
2022/01/12 00:44:45;;;;;;;;;;;3.70;99.90;;;;;;5080774;28;19924;-79
2022/01/12 00:47:10;;;;;;;;;;;4.10;99.90;;;;;;5079398;28;19928;-79
2022/01/12 00:49:36;;;;;;;;;;;3.70;99.90;;;;;;5080058;28;19924;-79
2022/01/12 00:52:02;;;;;;;;;;;3.60;99.90;;;;;;5098390;28;19967;-79
2022/01/12 00:54:28;;;;;;;;;;;3.70;99.90;;;;;;5080391;28;19959;-79
2022/01/12 00:56:53;;;;;;;;;;;3.60;99.90;;;;;;5080026;28;20298;-79
2022/01/12 00:59:19;;;;;;;;;;;3.70;99.90;;;;;;5063490;28;19938;-79
2022/01/12 01:01:45;;;;;;;;;;;4.10;99.90;;;;;;5079784;28;19935;-79
2022/01/12 01:04:10;;;;;;;;;;;3.70;99.90;;;;;;5080227;28;19924;-79
2022/01/12 01:06:36;;;;;;;;;;;4.10;99.90;;;;;;5080236;28;19924;-80
2022/01/12 01:09:03;;;;;;;;;;;3.70;99.90;;;;;;5098379;28;19928;-79
2022/01/12 01:11:28;;;;;;;;;;;3.80;99.90;;;;;;5080365;28;19924;-79
2022/01/12 01:14:00;;;;;;;;;;;3.80;99.90;;;;;;5063431;28;19931;-79
2022/01/12 01:27:06;;;;;;;;;;;3.90;99.90;;;;;;5098344;28;19991;-80
2022/01/12 01:29:31;;;;;;;;;;;3.60;99.90;;;;;;5080560;28;19934;-79
2022/01/12 01:31:57;;;;;;;;;;;4.50;99.90;;;;;;5080446;28;19959;-79
2022/01/12 01:34:23;;;;;;;;;;;3.90;99.90;;;;;;5080549;28;19932;-79
2022/01/12 01:36:50;;;;;;;;;;;3.80;99.90;;;;;;5070731;22;19925;-79
2022/01/12 01:39:17;;;;;;;;;;;4.30;99.90;;;;;;5057230;28;19925;-79
2022/01/12 01:41:48;;;;;;;;;;;3.80;99.90;;;;;;5059761;28;20378;-79
2022/01/12 01:54:53;;;;;;;;;;;3.80;99.90;;;;;;5059970;28;19925;-79
2022/01/12 01:57:18;;;;;;;;;;;3.80;99.90;;;;;;5043346;28;19974;-80
2022/01/12 01:59:45;;;;;;;;;;;3.80;99.90;;;;;;5044002;28;20000;-79
2022/01/12 02:02:11;;;;;;;;;;;3.80;99.90;;;;;;5061291;28;19968;-79
2022/01/12 02:04:37;;;;;;;;;;;3.80;99.90;;;;;;5060032;28;19971;-79
2022/01/12 02:07:02;;;;;;;;;;;4.40;99.90;;;;;;5060208;28;19924;-79
2022/01/12 02:09:28;;;;;;;;;;;3.90;99.90;;;;;;5043534;28;19921;-79
2022/01/12 02:11:54;;;;;;;;;;;3.80;99.90;;;;;;5060290;28;19928;-79
2022/01/12 02:14:20;;;;;;;;;;;4.10;99.90;;;;;;5043742;28;19925;-79
2022/01/12 02:16:57;;;;;;;;;;;3.90;99.90;;;;;;5042485;28;19931;-79
2022/01/12 02:36:13;;;;;;;;;;;4.00;99.90;;;;;;5060160;28;19925;-79
2022/01/12 02:41:23;;;;;;;;;;;3.90;99.90;;;;;;5064748;28;19934;-79
2022/01/12 02:54:47;;;;;;;;;;;3.80;99.90;;;;;;5003526;28;19933;-80
2022/01/12 02:57:13;;;;;;;;;;;3.80;99.90;;;;;;5019888;28;19926;-79
2022/01/12 02:59:48;;;;;;;;;;;4.20;99.90;;;;;;5001783;28;20475;-79
2022/01/12 03:02:51;;;;;;;;;;;3.90;99.90;;;;;;5002150;28;19946;-79
2022/01/12 03:07:38;;;;;;;;;;;3.70;99.90;;;;;;5018751;28;20381;-79
2022/01/12 03:10:07;;;;;;;;;;;4.40;99.90;;;;;;5018309;28;19983;-79
2022/01/12 03:12:35;;;;;;;;;;;3.70;99.90;;;;;;5018185;28;19925;-79
2022/01/12 03:15:01;;;;;;;;;;;3.90;99.90;;;;;;4985574;28;20299;-79
2022/01/12 03:17:26;;;;;;;;;;;3.70;99.90;;;;;;5018209;28;19925;-79
2022/01/12 03:19:52;;;;;;;;;;;3.70;99.90;;;;;;5001846;28;19958;-79
2022/01/12 03:22:17;;;;;;;;;;;3.90;99.90;;;;;;5017784;28;19925;-79
2022/01/12 03:24:43;;;;;;;;;;;3.70;99.90;;;;;;5003096;28;19925;-79
2022/01/12 03:27:13;;;;;;;;;;;3.70;99.90;;;;;;5060056;28;20298;-79
2022/01/12 03:29:41;;;;;;;;;;;3.60;99.90;;;;;;5059406;28;19925;-79
2022/01/12 03:32:10;;;;;;;;;;;4.00;99.90;;;;;;5041853;28;20321;-80
2022/01/12 03:34:37;;;;;;;;;;;3.60;99.90;;;;;;5058561;28;19947;-79
2022/01/12 03:37:27;;;;;;;;;;;3.60;99.90;;;;;;5059893;28;19977;-79
2022/01/12 03:39:53;;;;;;;;;;;3.50;99.90;;;;;;5058591;28;19925;-79
2022/01/12 03:42:19;;;;;;;;;;;3.30;99.90;;;;;;5058156;28;19921;-80
2022/01/12 03:44:45;;;;;;;;;;;3.20;99.90;;;;;;5059457;28;19924;-79
2022/01/12 03:47:10;;;;;;;;;;;3.10;99.90;;;;;;5040924;28;19924;-79
2022/01/12 03:49:36;;;;;;;;;;;3.20;99.90;;;;;;5057937;28;19939;-80
2022/01/12 03:52:02;;;;;;;;;;;3.00;99.90;;;;;;5059253;28;19929;-79
2022/01/12 03:54:27;;;;;;;;;;;2.80;99.90;;;;;;5057670;28;19932;-79
2022/01/12 03:56:53;;;;;;;;;;;2.70;99.90;;;;;;5058447;28;20333;-79
2022/01/12 03:59:19;;;;;;;;;;;2.60;99.90;;;;;;5057068;28;19946;-79
2022/01/12 04:01:44;;;;;;;;;;;2.60;99.90;;;;;;5040485;28;19925;-79
2022/01/12 04:04:18;;;;;;;;;;;2.80;99.90;;;;;;5056232;28;20451;-79
2022/01/12 04:09:28;;;;;;;;;;;2.40;99.90;;;;;;5056526;28;19925;-79
2022/01/12 04:11:53;;;;;;;;;;;2.30;99.90;;;;;;5057953;28;20078;-79
2022/01/12 04:14:19;;;;;;;;;;;2.30;99.90;;;;;;5056550;28;20349;-79
2022/01/12 04:16:45;;;;;;;;;;;2.30;99.90;;;;;;5058022;28;19925;-79
2022/01/12 04:19:10;;;;;;;;;;;2.20;99.90;;;;;;5057674;28;19928;-79
2022/01/12 04:21:42;;;;;;;;;;;2.20;99.90;;;;;;5058234;28;19925;-79
2022/01/12 04:24:08;;;;;;;;;;;2.10;99.90;;;;;;5056389;28;20336;-79
2022/01/12 04:26:33;;;;;;;;;;;2.10;99.90;;;;;;5056711;28;19925;-79
2022/01/12 04:28:59;;;;;;;;;;;2.00;99.90;;;;;;5057718;28;20299;-79
2022/01/12 04:31:24;;;;;;;;;;;2.00;99.90;;;;;;5039285;28;19925;-79
2022/01/12 04:33:51;;;;;;;;;;;1.90;99.90;;;;;;5057523;28;20020;-79
2022/01/12 04:36:17;;;;;;;;;;;2.30;99.90;;;;;;5056060;28;20004;-79
2022/01/12 04:38:43;;;;;;;;;;;1.90;99.90;;;;;;5056752;28;20078;-79
2022/01/12 04:41:09;;;;;;;;;;;1.80;99.90;;;;;;5039341;28;20363;-79
2022/01/12 04:43:36;;;;;;;;;;;1.70;99.90;;;;;;5055719;28;19925;-79
2022/01/12 04:51:00;;;;;;;;;;;1.90;99.90;;;;;;5057291;28;19925;-79
2022/01/12 04:53:26;;;;;;;;;;;1.70;99.90;;;;;;5056554;28;19925;-79
2022/01/12 04:55:52;;;;;;;;;;;2.10;99.90;;;;;;5056186;28;19982;-79
2022/01/12 04:58:18;;;;;;;;;;;1.70;99.90;;;;;;5055939;28;19928;-79
2022/01/12 05:00:45;;;;;;;;;;;1.70;99.90;;;;;;5055018;28;19979;-79
2022/01/12 05:13:52;;;;;;;;;;;1.50;99.90;;;;;;5055286;28;19925;-79
2022/01/12 05:16:18;;;;;;;;;;;1.40;99.90;;;;;;5062135;28;19925;-79
2022/01/12 05:18:45;;;;;;;;;;;1.40;99.90;;;;;;5061818;28;20388;-79
2022/01/12 05:21:11;;;;;;;;;;;1.40;99.90;;;;;;5061295;28;19928;-79
2022/01/12 05:23:36;;;;;;;;;;;1.30;99.90;;;;;;5061779;28;19924;-79
2022/01/12 05:26:02;;;;;;;;;;;1.20;99.90;;;;;;5061755;28;20425;-79
2022/01/12 05:28:28;;;;;;;;;;;1.20;99.90;;;;;;5062296;28;20481;-79
2022/01/12 05:30:55;;;;;;;;;;;1.20;99.90;;;;;;5062561;28;19921;-80
2022/01/12 05:33:23;;;;;;;;;;;1.20;99.90;;;;;;5047693;28;19968;-80
2022/01/12 05:35:48;;;;;;;;;;;1.10;99.90;;;;;;5047760;28;20074;-80
2022/01/12 05:38:14;;;;;;;;;;;1.10;99.90;;;;;;5088049;22;19955;-80
2022/01/12 05:40:41;;;;;;;;;;;1.10;99.90;;;;;;5086113;22;19930;-80
2022/01/12 05:43:07;;;;;;;;;;;1.10;99.90;;;;;;5091923;22;20015;-80
2022/01/12 05:45:33;;;;;;;;;;;1.10;99.90;;;;;;5084245;28;19986;-80
2022/01/12 05:50:27;;;;;;;;;;;1.00;99.90;;;;;;5098848;22;20035;-81
2022/01/12 05:52:53;;;;;;;;;;;1.10;99.90;;;;;;5106053;22;19924;-80
2022/01/12 05:55:19;;;;;;;;;;;1.10;99.90;;;;;;5102728;22;20019;-81
2022/01/12 05:57:45;;;;;;;;;;;1.00;99.90;;;;;;5068914;22;19925;-80
2022/01/12 06:00:18;;;;;;;;;;;1.90;99.90;;;;;;5069266;22;19929;-80
2022/01/12 06:02:44;;;;;;;;;;;1.20;99.90;;;;;;5062463;22;20010;-80
2022/01/12 06:05:19;;;;;;;;;;;1.20;99.90;;;;;;5095270;22;19948;-80
2022/01/12 06:07:45;;;;;;;;;;;1.20;99.90;;;;;;5071189;22;20375;-80
2022/01/12 06:10:11;;;;;;;;;;;1.10;99.90;;;;;;5091790;23;19931;-80
2022/01/12 06:12:37;;;;;;;;;;;1.10;99.90;;;;;;5093935;22;20231;-80
2022/01/12 06:15:03;;;;;;;;;;;1.10;99.90;;;;;;5089781;22;19925;-80
2022/01/12 06:17:29;;;;;;;;;;;1.00;99.90;;;;;;5098648;22;19924;-80
2022/01/12 06:19:54;;;;;;;;;;;1.00;99.90;;;;;;5108853;22;19963;-80
2022/01/12 06:22:20;;;;;;;;;;;1.00;99.90;;;;;;5103512;23;19973;-80
2022/01/12 06:24:45;;;;;;;;;;;1.00;99.90;;;;;;5103655;22;21580;-80
2022/01/12 06:27:15;;;;;;;;;;;1.00;99.90;;;;;;5108952;22;19974;-80
2022/01/12 06:29:44;;;;;;;;;;;1.10;99.90;;;;;;5065964;23;20249;-80
2022/01/12 06:32:10;;;;;;;;;;;1.10;99.90;;;;;;5045145;28;19929;-80
2022/01/12 06:34:35;;;;;;;;;;;1.10;99.90;;;;;;5079028;22;19941;-80
2022/01/12 06:37:02;;;;;;;;;;;1.10;99.90;;;;;;5101161;22;19924;-80
2022/01/12 06:39:27;;;;;;;;;;;1.10;99.90;;;;;;5081493;28;19932;-80
2022/01/12 06:41:54;;;;;;;;;;;1.10;99.90;;;;;;5111045;22;20297;-80
2022/01/12 06:44:20;;;;;;;;;;;1.10;99.90;;;;;;5109238;22;19925;-80
2022/01/12 06:46:46;;;;;;;;;;;1.10;99.90;;;;;;5082356;22;19986;-80
2022/01/12 06:49:12;;;;;;;;;;;1.10;99.90;;;;;;5103324;22;19974;-80
2022/01/12 06:51:39;;;;;;;;;;;1.10;99.90;;;;;;5112641;22;19932;-80
2022/01/12 06:54:04;;;;;;;;;;;1.10;99.90;;;;;;5091568;22;19973;-80
2022/01/12 06:56:30;;;;;;;;;;;1.20;99.90;;;;;;5109355;22;20323;-80
2022/01/12 06:58:55;;;;;;;;;;;1.20;99.90;;;;;;5074712;23;19946;-80
2022/01/12 07:01:21;;;;;;;;;;;1.20;99.90;;;;;;5074945;22;19951;-81
2022/01/12 07:03:47;;;;;;;;;;;1.90;99.90;;;;;;5084143;22;19928;-80
2022/01/12 07:06:18;;;;;;;;;;;1.30;99.90;;;;;;5099474;22;20035;-80
2022/01/12 07:08:44;;;;;;;;;;;1.30;99.90;;;;;;5062876;22;19963;-80
2022/01/12 07:11:15;;;;;;;;;;;1.30;99.90;;;;;;5093757;22;19939;-81
2022/01/12 07:13:41;;;;;;;;;;;1.30;99.90;;;;;;5082161;22;19924;-80
2022/01/12 07:16:07;;;;;;;;;;;1.40;99.90;;;;;;5079238;22;20015;-80
2022/01/12 07:18:32;;;;;;;;;;;1.40;99.90;;;;;;5092140;22;19931;-80
2022/01/12 07:20:59;;;;;;;;;;;1.80;99.90;;;;;;5009760;23;1857482;-80
2022/01/12 07:23:25;;;;;;;;;;;1.30;99.90;;;;;;5100779;22;19931;-80
2022/01/12 07:25:52;;;;;;;;;;;1.30;99.90;;;;;;5122173;28;20369;-79
2022/01/12 07:28:17;;;;;;;;;;;1.40;99.90;;;;;;5093471;22;19928;-80
2022/01/12 07:30:43;;;;;;;;;;;1.40;99.90;;;;;;5063657;28;19955;-80
2022/01/12 07:33:15;;;;;;;;;;;2.00;99.90;;;;;;5078845;22;19931;-80
2022/01/12 07:35:41;;;;;;;;;;;1.30;99.90;;;;;;5092381;22;19925;-80
2022/01/12 07:38:13;;;;;;;;;;;1.40;99.90;;;;;;5064035;22;19967;-81
2022/01/12 07:40:39;;;;;;;;;;;1.40;99.90;;;;;;5082038;22;20243;-80
2022/01/12 07:43:05;;;;;;;;;;;1.40;99.90;;;;;;5091040;22;19931;-80
2022/01/12 07:45:31;;;;;;;;;;;1.40;99.90;;;;;;5087434;22;19928;-80
2022/01/12 07:47:56;;;;;;;;;;;1.40;99.90;;;;;;5094492;22;20387;-80
2022/01/12 07:50:22;;;;;;;;;;;1.40;99.90;;;;;;5098276;22;19924;-80
2022/01/12 07:52:48;;;;;;;;;;;1.50;99.90;;;;;;5086174;22;19959;-80
2022/01/12 07:55:14;;;;;;;;;;;1.40;99.90;;;;;;5103036;22;19924;-80
2022/01/12 07:57:42;;;;;;;;;;;1.40;99.90;;;;;;5091081;22;19974;-80
2022/01/12 08:00:08;;;;;;;;;;;1.30;99.90;;;;;;5076857;23;20019;-81
2022/01/12 08:02:34;;;;;;;;;;;1.30;99.90;;;;;;5088923;22;19931;-80
2022/01/12 08:04:59;;;;;;;;;;;1.20;99.90;;;;;;5090139;22;19924;-80
2022/01/12 08:07:25;;;;;;;;;;;1.20;99.90;;;;;;5106257;22;19931;-81
2022/01/12 08:09:50;;;;;;;;;;;1.10;99.90;;;;;;5087222;22;19924;-80
2022/01/12 08:12:16;;;;;;;;;;;1.10;99.90;;;;;;5084635;22;19923;-80
2022/01/12 08:14:42;;;;;;;;;;;1.10;99.90;;;;;;5105951;22;20027;-80
2022/01/12 08:17:07;;;;;;;;;;;1.10;99.90;;;;;;5083169;28;19927;-80
2022/01/12 08:19:37;;;;;;;;;;;1.10;99.90;;;;;;5096131;22;19916;-80
2022/01/12 08:22:03;;;;;;;;;;;1.10;99.90;;;;;;5104629;22;19924;-80
2022/01/12 08:24:29;;;;;;;;;;;1.20;99.90;;;;;;5062403;28;20359;-80
2022/01/12 08:26:55;;;;;;;;;;;1.90;99.90;;;;;;5096642;22;19924;-80
2022/01/12 08:29:20;;;;;;;;;;;1.20;99.90;;;;;;5103440;22;19985;-81
2022/01/12 08:31:46;;;;;;;;;;;1.30;99.90;;;;;;5065323;28;19924;-80
2022/01/12 08:34:17;;;;;;;;;;;1.20;99.90;;;;;;5065207;22;19924;31
2022/01/12 08:36:43;;;;;;;;;;;1.30;99.90;;;;;;5060583;22;20367;-80
2022/01/12 08:39:15;;;;;;;;;;;1.40;99.90;;;;;;5080672;22;19925;-80
2022/01/12 08:41:41;;;;;;;;;;;1.40;99.90;;;;;;5068791;22;19925;-81
2022/01/12 08:44:07;;;;;;;;;;;1.40;99.90;;;;;;5059512;22;19931;-80
2022/01/12 08:46:33;;;;;;;;;;;1.40;99.90;;;;;;5078588;22;19924;-80
2022/01/12 08:48:59;;;;;;;;;;;1.40;99.90;;;;;;5064080;23;19932;-80
2022/01/12 08:51:24;;;;;;;;;;;1.40;99.90;;;;;;5052984;22;19984;-81
2022/01/12 08:53:50;;;;;;;;;;;1.50;99.90;;;;;;5065276;28;19954;-81
2022/01/12 08:56:16;;;;;;;;;;;2.00;99.90;;;;;;5074207;22;20454;-81
2022/01/12 08:58:41;;;;;;;;;;;1.60;99.90;;;;;;5076101;23;19924;-81
2022/01/12 09:03:33;;;;;;;;;;;1.60;99.90;;;;;;5128179;22;19928;-80
2022/01/12 09:05:59;;;;;;;;;;;1.60;99.90;;;;;;5088289;22;19925;-80
2022/01/12 09:08:24;;;;;;;;;;;1.70;99.90;;;;;;5092687;22;20410;-80
2022/01/12 09:10:50;;;;;;;;;;;1.70;99.90;;;;;;5085846;28;19924;-80
2022/01/12 09:13:15;;;;;;;;;;;1.70;99.90;;;;;;5073760;23;19928;-80
2022/01/12 09:15:41;;;;;;;;;;;1.80;99.90;;;;;;5079929;23;19924;-80
2022/01/12 09:18:07;;;;;;;;;;;1.80;99.90;;;;;;5078388;23;19973;-81
2022/01/12 09:20:32;;;;;;;;;;;1.90;99.90;;;;;;5079902;22;21801;-80
2022/01/12 09:22:58;;;;;;;;;;;1.90;99.90;;;;;;5059297;23;20379;-80
2022/01/12 09:25:24;;;;;;;;;;;1.90;99.90;;;;;;5091340;22;19924;-81
2022/01/12 09:27:50;;;;;;;;;;;2.10;99.90;;;;;;5080734;22;19996;-80
2022/01/12 09:30:18;;;;;;;;;;;1.90;99.90;;;;;;5096197;22;19931;-81
2022/01/12 09:32:44;;;;;;;;;;;1.90;99.90;;;;;;5087204;22;19928;-80
2022/01/12 09:35:10;;;;;;;;;;;2.00;99.90;;;;;;5092390;22;19931;-81
2022/01/12 09:37:36;;;;;;;;;;;1.90;99.90;;;;;;5071883;22;20024;-80
2022/01/12 09:40:02;;;;;;;;;;;1.90;99.90;;;;;;5071345;23;19925;-81
2022/01/12 09:42:28;;;;;;;;;;;2.00;99.90;;;;;;5071361;22;19943;-81
2022/01/12 09:44:54;;;;;;;;;;;2.00;99.90;;;;;;5082619;22;19929;-81
2022/01/12 09:47:20;;;;;;;;;;;2.10;99.90;;;;;;5098065;22;19924;-81
2022/01/12 09:49:46;;;;;;;;;;;2.20;99.90;;;;;;5076384;22;19925;-81
2022/01/12 09:52:12;;;;;;;;;;;2.20;99.90;;;;;;5076502;22;19930;-81
2022/01/12 09:54:38;;;;;;;;;;;2.30;99.90;;;;;;5086552;22;19933;-81
2022/01/12 09:57:04;;;;;;;;;;;2.30;99.90;;;;;;5081608;28;19971;-81
2022/01/12 09:59:30;;;;;;;;;;;2.40;99.90;;;;;;5090511;28;19968;-81
2022/01/12 10:01:55;;;;;;;;;;;2.90;99.90;;;;;;5102467;22;19989;-81
2022/01/12 10:04:25;;;;;;;;;;;2.50;99.90;;;;;;5098742;22;19954;-81
2022/01/12 10:06:53;;;;;;;;;;;2.50;99.90;;;;;;5092094;22;19925;-81
2022/01/12 10:09:45;;;;;;;;;;;2.60;99.90;;;;;;5081920;22;19936;-81
2022/01/12 10:12:12;;;;;;;;;;;2.60;99.90;;;;;;5061274;28;19925;-81
2022/01/12 10:14:42;;;;;;;;;;;2.70;99.90;;;;;;5086002;22;20298;-81
2022/01/12 10:17:07;;;;;;;;;;;2.70;99.90;;;;;;5107547;28;20345;-81
2022/01/12 10:19:33;;;;;;;;;;;3.00;99.90;;;;;;5101390;22;19931;-81
2022/01/12 10:22:00;;;;;;;;;;;2.70;99.90;;;;;;5078447;22;19952;-80
2022/01/12 10:24:26;;;;;;;;;;;2.70;99.90;;;;;;5066429;28;19925;-81
2022/01/12 10:26:52;;;;;;;;;;;2.80;99.90;;;;;;5078814;22;19932;-81
2022/01/12 10:29:19;;;;;;;;;;;2.80;99.90;;;;;;5089814;22;19932;-81
2022/01/12 10:31:46;;;;;;;;;;;2.80;99.90;;;;;;5082869;28;19990;-81
2022/01/12 10:34:12;;;;;;;;;;;3.40;99.90;;;;;;5082210;28;19925;-81
2022/01/12 10:36:39;;;;;;;;;;;3.40;99.90;;;;;;5082748;28;19931;-81
2022/01/12 10:39:08;;;;;;;;;;;2.90;99.90;;;;;;5075783;22;19946;-81
2022/01/12 10:41:34;;;;;;;;;;;3.00;99.90;;;;;;5076261;22;19924;-81
2022/01/12 10:44:00;;;;;;;;;;;3.00;99.90;;;;;;5074721;23;20022;-80
2022/01/12 10:46:28;;;;;;;;;;;3.10;99.90;;;;;;5087258;22;19924;-80
2022/01/12 10:48:55;;;;;;;;;;;3.20;99.90;;;;;;5065648;28;19929;-81
2022/01/12 10:51:25;;;;;;;;;;;3.50;99.90;;;;;;5097678;22;19947;-81
2022/01/12 10:53:51;;;;;;;;;;;3.30;99.90;;;;;;5078517;22;19924;-81
2022/01/12 10:56:18;;;;;;;;;;;3.30;99.90;;;;;;5090883;22;19928;-81
2022/01/12 10:58:45;;;;;;;;;;;3.40;99.90;;;;;;5066580;22;19925;-80
2022/01/12 11:03:37;;;;;;;;;;;3.50;99.90;;;;;;5132572;22;20285;-81
2022/01/12 11:06:03;;;;;;;;;;;3.60;99.90;;;;;;5090918;22;19925;-81
2022/01/12 11:08:29;;;;;;;;;;;3.60;99.90;;;;;;5093146;22;19978;-81
2022/01/12 11:10:56;;;;;;;;;;;3.80;99.90;;;;;;5089699;22;20552;-81
2022/01/12 11:13:22;;;;;;;;;;;3.80;99.90;;;;;;5110141;22;19955;-81
2022/01/12 11:15:48;;;;;;;;;;;3.90;99.90;;;;;;5087436;22;19939;-81
2022/01/12 11:18:14;;;;;;;;;;;4.00;99.90;;;;;;5108693;22;20025;-81
2022/01/12 11:20:40;;;;;;;;;;;4.10;99.90;;;;;;5075021;23;19925;-81
2022/01/12 11:23:07;;;;;;;;;;;4.20;99.90;;;;;;5080059;22;19924;-81
2022/01/12 11:25:33;;;;;;;;;;;4.20;99.90;;;;;;5083639;28;19994;-81
2022/01/12 11:28:13;;;;;;;;;;;4.50;99.90;;;;;;5091127;23;20366;-80
2022/01/12 11:30:42;;;;;;;;;;;4.30;99.90;;;;;;5090770;23;19927;-81
2022/01/12 11:33:14;;;;;;;;;;;4.40;99.90;;;;;;5078815;23;20432;-81
2022/01/12 11:35:45;;;;;;;;;;;4.40;99.90;;;;;;5078120;22;19924;-81
2022/01/12 11:38:29;;;;;;;;;;;4.40;99.90;;;;;;5077395;22;19991;-81
2022/01/12 11:41:12;;;;;;;;;;;4.40;99.90;;;;;;5088066;22;19930;-81
2022/01/12 11:43:42;;;;;;;;;;;4.50;99.90;;;;;;5093094;22;21628;-81
2022/01/12 11:46:12;;;;;;;;;;;4.60;99.90;;;;;;5077666;23;20035;-81
2022/01/12 11:48:40;;;;;;;;;;;4.50;99.90;;;;;;5096594;22;19937;-81
2022/01/12 11:51:06;;;;;;;;;;;4.50;99.90;;;;;;5091175;23;19976;-81
2022/01/12 11:53:42;;;;;;;;;;;4.50;99.90;;;;;;5090584;22;20022;-81
2022/01/12 11:58:59;;;;;;;;;;;4.60;99.90;;;;;;5083400;22;21032;-81
2022/01/12 12:01:34;;;;;;;;;;;4.60;99.90;;;;;;5098317;22;19931;-81
2022/01/12 12:04:01;;;;;;;;;;;4.70;99.90;;;;;;5077572;23;19955;-81
2022/01/12 12:06:27;;;;;;;;;;;4.70;99.90;;;;;;5084986;22;19924;-81
2022/01/12 12:08:55;;;;;;;;;;;4.70;99.90;;;;;;5086287;22;19924;-81
2022/01/12 12:11:21;;;;;;;;;;;4.80;99.90;;;;;;5079250;22;19931;-81
2022/01/12 12:13:46;;;;;;;;;;;4.80;99.90;;;;;;5065266;28;19924;-80
2022/01/12 12:16:13;;;;;;;;;;;4.90;99.90;;;;;;5107421;22;19927;-81
2022/01/12 12:18:39;;;;;;;;;;;4.90;99.90;;;;;;5044716;28;19931;-81
2022/01/12 12:21:04;;;;;;;;;;;5.00;99.90;;;;;;5057475;23;19933;-81
2022/01/12 12:23:32;;;;;;;;;;;5.50;99.90;;;;;;5070525;23;19924;-80
2022/01/12 12:25:59;;;;;;;;;;;5.00;99.90;;;;;;5061959;28;19924;-81
2022/01/12 12:28:24;;;;;;;;;;;5.10;99.90;;;;;;5077326;23;20421;-80
2022/01/12 12:30:50;;;;;;;;;;;5.70;99.90;;;;;;5069548;23;19924;-81
2022/01/12 12:35:42;;;;;;;;;;;5.10;99.90;;;;;;5118623;22;19973;-80
2022/01/12 12:38:11;;;;;;;;;;;5.10;99.90;;;;;;5088277;22;19923;-81
2022/01/12 12:40:38;;;;;;;;;;;5.10;99.90;;;;;;5076749;23;19925;-81
2022/01/12 12:43:04;;;;;;;;;;;5.10;99.90;;;;;;5085256;22;20263;-81
2022/01/12 12:45:36;;;;;;;;;;;5.10;99.90;;;;;;5069578;23;19932;-81
2022/01/12 12:48:03;;;;;;;;;;;5.10;99.90;;;;;;5070099;23;20398;-81
2022/01/12 12:50:31;;;;;;;;;;;5.10;99.90;;;;;;5071338;22;19925;-81
2022/01/12 12:52:57;;;;;;;;;;;5.10;99.90;;;;;;5084743;22;19932;-81
2022/01/12 12:55:24;;;;;;;;;;;5.10;99.90;;;;;;5069327;22;19925;-82
2022/01/12 12:57:51;;;;;;;;;;;5.20;99.90;;;;;;5062076;28;19977;-80
2022/01/12 13:00:18;;;;;;;;;;;5.10;99.90;;;;;;5067285;22;19924;-81
2022/01/12 13:02:45;;;;;;;;;;;5.20;99.90;;;;;;5075549;23;19950;-80
2022/01/12 13:05:12;;;;;;;;;;;5.20;99.90;;;;;;5074082;22;20062;-80
2022/01/12 13:07:42;;;;;;;;;;;5.20;99.90;;;;;;5078288;22;19929;-80
2022/01/12 13:10:16;;;;;;;;;;;5.30;99.90;;;;;;5088868;23;19923;-81
2022/01/12 13:12:43;;;;;;;;;;;5.20;99.90;;;;;;5080601;22;19928;-80
2022/01/12 13:15:17;;;;;;;;;;;5.20;99.90;;;;;;5110646;22;19924;31
2022/01/12 13:17:43;;;;;;;;;;;5.20;99.90;;;;;;5083257;22;19948;-80
2022/01/12 13:22:47;;;;;;;;;;;5.20;99.90;;;;;;5077355;22;20445;-80
2022/01/12 13:25:15;;;;;;;;;;;5.30;99.90;;;;;;5069042;23;19924;-80
2022/01/12 13:27:41;;;;;;;;;;;5.30;99.90;;;;;;5069789;23;20049;-80
2022/01/12 13:30:08;;;;;;;;;;;5.30;99.90;;;;;;5076935;23;19956;-81
2022/01/12 13:32:35;;;;;;;;;;;5.30;99.90;;;;;;5078412;22;19924;-80
2022/01/12 13:35:03;;;;;;;;;;;5.30;99.90;;;;;;5080671;23;19986;-80
2022/01/12 13:37:31;;;;;;;;;;;5.30;99.90;;;;;;5092770;22;19959;-80
2022/01/12 13:40:10;;;;;;;;;;;5.30;99.90;;;;;;5070072;28;19930;-80
2022/01/12 13:42:49;;;;;;;;;;;5.30;99.90;;;;;;5078060;22;19928;-80
2022/01/12 13:45:22;;;;;;;;;;;5.30;99.90;;;;;;5092596;22;19928;31
2022/01/12 13:47:53;;;;;;;;;;;5.20;99.90;;;;;;5032704;23;19965;-80
2022/01/12 13:50:19;;;;;;;;;;;5.20;99.90;;;;;;5085041;22;19932;-81
2022/01/12 13:52:51;;;;;;;;;;;5.20;99.90;;;;;;5079465;22;19928;-80
2022/01/12 13:57:57;;;;;;;;;;;5.10;99.90;;;;;;5123140;28;19924;-80
2022/01/12 14:00:23;;;;;;;;;;;5.10;99.90;;;;;;5081626;22;19924;-80
2022/01/12 14:02:49;;;;;;;;;;;5.70;99.90;;;;;;5072450;23;19946;-80
2022/01/12 14:05:28;;;;;;;;;;;5.10;99.90;;;;;;5080524;23;19948;-80
2022/01/12 14:08:00;;;;;;;;;;;5.10;99.90;;;;;;5094581;23;19998;-80
2022/01/12 14:10:27;;;;;;;;;;;5.10;99.90;;;;;;5081724;23;19924;-81
2022/01/12 14:12:54;;;;;;;;;;;5.00;99.90;;;;;;5083592;23;20337;-81
2022/01/12 14:15:26;;;;;;;;;;;5.10;99.90;;;;;;5089779;23;20321;-80
2022/01/12 14:17:51;;;;;;;;;;;5.00;99.90;;;;;;5099180;22;19931;-80
2022/01/12 14:20:28;;;;;;;;;;;5.10;99.90;;;;;;5074556;22;19992;-80
2022/01/12 14:23:00;;;;;;;;;;;5.00;99.90;;;;;;5071892;23;19923;-80
2022/01/12 14:25:37;;;;;;;;;;;5.00;99.90;;;;;;5093582;22;19924;-80
2022/01/12 14:28:03;;;;;;;;;;;5.00;99.90;;;;;;5077798;22;19925;-80
2022/01/12 14:30:29;;;;;;;;;;;4.90;99.90;;;;;;5085425;23;20009;-80
2022/01/12 14:32:55;;;;;;;;;;;5.00;99.90;;;;;;5090149;22;19929;-80
2022/01/12 14:35:23;;;;;;;;;;;5.00;99.90;;;;;;5036947;22;1933311;-81
2022/01/12 14:37:49;;;;;;;;;;;5.00;99.90;;;;;;5082202;22;19924;-80
2022/01/12 14:40:15;;;;;;;;;;;4.90;99.90;;;;;;5066043;28;19931;-80
2022/01/12 14:42:44;;;;;;;;;;;4.90;99.90;;;;;;5072827;23;19928;-80
2022/01/12 14:45:11;;;;;;;;;;;4.90;99.90;;;;;;5065945;28;19928;-80
2022/01/12 14:47:37;;;;;;;;;;;5.20;99.90;;;;;;5063262;22;19939;-80
2022/01/12 14:50:03;;;;;;;;;;;4.90;99.90;;;;;;5078725;23;19987;-80
2022/01/12 14:52:29;;;;;;;;;;;4.90;99.90;;;;;;5111026;22;20305;-81
2022/01/12 14:54:54;;;;;;;;;;;5.10;99.90;;;;;;5087623;23;19923;-80
2022/01/12 14:57:20;;;;;;;;;;;4.90;99.90;;;;;;5083854;22;19988;-80
2022/01/12 14:59:45;;;;;;;;;;;4.90;99.90;;;;;;5082502;22;19935;-80
2022/01/12 15:02:11;;;;;;;;;;;4.90;99.90;;;;;;5084557;28;20442;-80
2022/01/12 15:04:36;;;;;;;;;;;4.90;99.90;;;;;;5084222;28;19930;-80
2022/01/12 15:07:02;;;;;;;;;;;4.90;99.90;;;;;;5101379;28;19946;-80
2022/01/12 15:09:28;;;;;;;;;;;4.90;99.90;;;;;;5091424;22;19924;-80
2022/01/12 15:11:53;;;;;;;;;;;4.70;99.90;;;;;;5072756;28;19924;-80
2022/01/12 15:14:30;;;;;;;;;;;4.90;99.90;;;;;;5080724;28;20346;-80
2022/01/12 15:16:55;;;;;;;;;;;4.90;99.90;;;;;;5107386;22;20067;-80
2022/01/12 15:19:21;;;;;;;;;;;5.10;99.90;;;;;;5080206;22;19924;-80
2022/01/12 15:21:46;;;;;;;;;;;4.90;99.90;;;;;;5068759;28;20333;-80
2022/01/12 15:26:42;;;;;;;;;;;5.00;99.90;;;;;;5081595;28;19951;-80
2022/01/12 15:29:14;;;;;;;;;;;5.00;99.90;;;;;;5107250;22;19923;-80
2022/01/12 15:31:40;;;;;;;;;;;5.10;99.90;;;;;;5106090;22;20379;-80
2022/01/12 15:34:05;;;;;;;;;;;5.10;99.90;;;;;;5079623;22;20058;-80
2022/01/12 15:36:31;;;;;;;;;;;5.10;99.90;;;;;;5065281;28;20015;-81
2022/01/12 15:38:56;;;;;;;;;;;5.10;99.90;;;;;;5087105;22;19924;-80
2022/01/12 15:41:22;;;;;;;;;;;5.10;99.90;;;;;;5084852;28;20014;-80
2022/01/12 15:43:48;;;;;;;;;;;5.10;99.90;;;;;;5090808;23;19924;-80
2022/01/12 15:46:19;;;;;;;;;;;5.10;99.90;;;;;;5091216;22;20331;-80
2022/01/12 15:48:45;;;;;;;;;;;5.10;99.90;;;;;;5104494;23;19924;-80
2022/01/12 15:53:36;;;;;;;;;;;5.00;99.90;;;;;;5116227;22;21019;-80
2022/01/12 15:56:02;;;;;;;;;;;5.00;99.90;;;;;;5093116;22;20375;-80
2022/01/12 15:58:27;;;;;;;;;;;5.00;99.90;;;;;;5097036;22;19947;-81
2022/01/12 16:00:53;;;;;;;;;;;4.90;99.90;;;;;;5067633;28;19924;-80
2022/01/12 16:03:18;;;;;;;;;;;4.80;99.90;;;;;;5090241;22;19934;-80
2022/01/12 16:05:44;;;;;;;;;;;5.00;99.90;;;;;;5067879;28;19924;-80
2022/01/12 16:10:42;;;;;;;;;;;4.60;99.90;;;;;;5099821;28;19931;-80
2022/01/12 16:13:07;;;;;;;;;;;5.00;99.90;;;;;;5083378;28;19931;-80
2022/01/12 16:15:35;;;;;;;;;;;4.40;99.90;;;;;;5083179;28;19975;-80